Time;durP1;ratioP1;P1;durP2;ratioP2;P2;SDS_P1;SDS_P2;PMS_P1;PMS_P2;Temp;Humidity;BMP_temperature;BMP_pressure;BME280_temperature;BME280_humidity;BME280_pressure;Samples;Min_cycle;Max_cycle;Signal;HPM_P1;HPM_P2
2022/06/16 00:01:02;;;;;;;25.10;23.47;;;;;;;;;;5033691;28;20495;-77
2022/06/16 00:03:30;;;;;;;24.80;23.43;;;;;;;;;;5015977;28;20458;-78
2022/06/16 00:05:57;;;;;;;24.53;23.13;;;;;;;;;;5033544;28;20436;-78
2022/06/16 00:08:24;;;;;;;24.60;23.10;;;;;;;;;;5033490;28;20406;-78
2022/06/16 00:13:38;;;;;;;25.07;23.67;;;;;;;;;;5033354;28;20435;-78
2022/06/16 00:16:08;;;;;;;24.43;22.93;;;;;;;;;;5033541;28;20418;-77
2022/06/16 00:18:36;;;;;;;25.47;23.97;;;;;;;;;;5033524;28;20436;-77
2022/06/16 00:21:03;;;;;;;25.00;23.50;;;;;;;;;;5033026;28;20501;-77
2022/06/16 00:23:30;;;;;;;24.10;22.67;;;;;;;;;;5033270;28;20422;-78
2022/06/16 00:25:58;;;;;;;24.53;23.13;;;;;;;;;;5033243;28;20451;-78
2022/06/16 00:28:25;;;;;;;24.27;22.73;;;;;;;;;;5033268;28;20443;-78
2022/06/16 00:30:52;;;;;;;24.50;22.73;;;;;;;;;;5033351;28;20523;-78
2022/06/16 00:33:21;;;;;;;25.13;23.60;;;;;;;;;;5033190;28;20411;-78
2022/06/16 00:35:48;;;;;;;23.87;22.37;;;;;;;;;;5032974;28;20885;-78
2022/06/16 00:38:16;;;;;;;24.13;22.73;;;;;;;;;;5032679;28;20480;-78
2022/06/16 00:40:44;;;;;;;23.30;22.00;;;;;;;;;;5032785;28;20459;-77
2022/06/16 00:43:11;;;;;;;24.60;22.83;;;;;;;;;;5033124;28;20505;-77
2022/06/16 00:45:46;;;;;;;25.27;23.87;;;;;;;;;;5033250;28;20417;-78
2022/06/16 00:48:15;;;;;;;25.77;24.17;;;;;;;;;;5032915;28;20432;-77
2022/06/16 00:50:45;;;;;;;25.20;23.60;;;;;;;;;;5032686;28;20925;-77
2022/06/16 00:53:12;;;;;;;23.90;22.43;;;;;;;;;;5032558;28;20814;-77
2022/06/16 00:55:39;;;;;;;24.60;23.00;;;;;;;;;;5032911;28;20455;-77
2022/06/16 00:58:08;;;;;;;25.30;23.70;;;;;;;;;;5032913;28;20463;-77
2022/06/16 01:00:36;;;;;;;23.87;22.57;;;;;;;;;;5033075;28;20483;-77
2022/06/16 01:03:03;;;;;;;25.27;23.77;;;;;;;;;;5033034;28;20414;-76
2022/06/16 01:05:30;;;;;;;24.97;23.40;;;;;;;;;;5032477;28;20429;-77
2022/06/16 01:07:59;;;;;;;23.80;22.40;;;;;;;;;;5032479;28;20512;-77
2022/06/16 01:10:29;;;;;;;24.70;23.30;;;;;;;;;;5032450;28;20934;-77
2022/06/16 01:15:56;;;;;;;23.13;21.83;;;;;;;;;;5032636;28;20486;-77
2022/06/16 01:18:27;;;;;;;24.87;23.40;;;;;;;;;;5036565;28;20435;-77
2022/06/16 01:21:00;;;;;;;25.47;23.77;;;;;;;;;;5036782;28;20508;-77
2022/06/16 01:23:45;;;;;;;24.70;23.10;;;;;;;;;;5036465;28;20912;-77
2022/06/16 01:26:28;;;;;;;24.17;22.23;;;;;;;;;;5036823;28;20440;-77
2022/06/16 01:29:05;;;;;;;23.67;22.37;;;;;;;;;;5036374;28;20470;-77
2022/06/16 01:31:34;;;;;;;23.93;22.53;;;;;;;;;;5036246;28;20975;-77
2022/06/16 01:34:07;;;;;;;23.63;22.33;;;;;;;;;;5036521;28;20463;-77
2022/06/16 01:36:36;;;;;;;23.60;22.20;;;;;;;;;;5036481;28;20447;-77
2022/06/16 01:39:06;;;;;;;23.97;22.47;;;;;;;;;;5036224;28;20486;-77
2022/06/16 01:41:38;;;;;;;24.50;22.90;;;;;;;;;;5036387;28;20520;-77
2022/06/16 01:44:09;;;;;;;22.87;21.57;;;;;;;;;;5035994;28;20444;-77
2022/06/16 01:46:38;;;;;;;23.43;21.93;;;;;;;;;;5036319;28;20415;-78
2022/06/16 01:49:07;;;;;;;22.47;21.17;;;;;;;;;;5036291;28;20508;-77
2022/06/16 01:51:38;;;;;;;22.97;21.60;;;;;;;;;;5035987;28;20906;-76
2022/06/16 01:54:09;;;;;;;24.30;22.80;;;;;;;;;;5036450;28;20440;-77
2022/06/16 01:56:39;;;;;;;23.97;22.47;;;;;;;;;;5036135;28;20880;-76
2022/06/16 01:59:10;;;;;;;23.47;22.03;;;;;;;;;;5035798;28;20506;-76
2022/06/16 02:01:40;;;;;;;22.90;21.63;;;;;;;;;;5036049;28;20460;-77
2022/06/16 02:04:09;;;;;;;23.00;21.60;;;;;;;;;;5035990;28;20502;-77
2022/06/16 02:06:38;;;;;;;23.77;22.40;;;;;;;;;;5035881;28;20411;-77
2022/06/16 02:09:08;;;;;;;23.50;21.80;;;;;;;;;;5035929;28;20451;-77
2022/06/16 02:11:36;;;;;;;22.73;21.40;;;;;;;;;;5035601;28;20929;-77
2022/06/16 02:14:07;;;;;;;23.00;21.70;;;;;;;;;;5035705;28;20407;-77
2022/06/16 02:16:37;;;;;;;22.97;21.67;;;;;;;;;;5035839;28;20506;-78
2022/06/16 02:19:06;;;;;;;24.33;22.20;;;;;;;;;;5035481;28;20498;-77
2022/06/16 02:21:35;;;;;;;23.37;22.03;;;;;;;;;;5035612;28;20824;-77
2022/06/16 02:24:03;;;;;;;22.97;21.67;;;;;;;;;;5035281;28;20415;-77
2022/06/16 02:26:31;;;;;;;22.60;21.20;;;;;;;;;;5035489;28;20456;-77
2022/06/16 02:29:00;;;;;;;22.70;21.50;;;;;;;;;;5016116;28;20472;-77
2022/06/16 02:31:35;;;;;;;23.57;22.27;;;;;;;;;;5035501;28;20486;-77
2022/06/16 02:34:09;;;;;;;23.20;22.00;;;;;;;;;;5035016;28;20426;-77
2022/06/16 02:36:42;;;;;;;23.90;22.50;;;;;;;;;;5035001;28;20465;-77
2022/06/16 02:39:18;;;;;;;23.83;22.50;;;;;;;;;;5035037;28;20465;-76
2022/06/16 02:41:51;;;;;;;25.17;23.53;;;;;;;;;;5035202;28;20469;-77
2022/06/16 02:44:22;;;;;;;23.63;22.27;;;;;;;;;;5035016;28;20922;-77
2022/06/16 02:46:54;;;;;;;23.57;22.07;;;;;;;;;;5034923;28;20472;-77
2022/06/16 02:49:27;;;;;;;23.43;21.93;;;;;;;;;;5035470;28;20440;-77
2022/06/16 02:51:59;;;;;;;23.37;21.97;;;;;;;;;;5035104;28;20484;-77
2022/06/16 02:54:29;;;;;;;24.43;22.57;;;;;;;;;;5034787;28;20488;-77
2022/06/16 02:57:00;;;;;;;24.03;22.53;;;;;;;;;;5034813;28;20415;-77
2022/06/16 02:59:28;;;;;;;23.30;22.10;;;;;;;;;;5035036;28;20441;-77
2022/06/16 03:02:01;;;;;;;23.60;22.30;;;;;;;;;;5034864;28;20463;-77
2022/06/16 03:04:36;;;;;;;25.33;23.30;;;;;;;;;;5034626;28;20411;-77
2022/06/16 03:07:03;;;;;;;23.67;22.17;;;;;;;;;;5034429;28;20914;-77
2022/06/16 03:09:30;;;;;;;23.50;22.20;;;;;;;;;;5034868;28;20435;-78
2022/06/16 03:11:58;;;;;;;23.47;22.13;;;;;;;;;;5034802;28;20426;-77
2022/06/16 03:14:25;;;;;;;23.87;22.30;;;;;;;;;;5034400;28;20444;-77
2022/06/16 03:16:53;;;;;;;24.03;22.73;;;;;;;;;;5034706;28;20448;-77
2022/06/16 03:19:22;;;;;;;23.67;22.17;;;;;;;;;;5034592;28;20418;-77
2022/06/16 03:21:50;;;;;;;23.20;21.80;;;;;;;;;;5034501;28;20454;-77
2022/06/16 03:24:18;;;;;;;24.37;22.77;;;;;;;;;;5034493;28;20411;-77
2022/06/16 03:26:45;;;;;;;25.10;23.47;;;;;;;;;;5034412;28;20444;-78
2022/06/16 03:29:12;;;;;;;24.53;23.03;;;;;;;;;;5034343;28;20447;-77
2022/06/16 03:31:40;;;;;;;25.10;23.50;;;;;;;;;;5034187;28;20448;-77
2022/06/16 03:34:07;;;;;;;23.40;22.10;;;;;;;;;;5034342;28;20419;-77
2022/06/16 03:36:35;;;;;;;25.00;23.30;;;;;;;;;;5034182;28;20783;-77
2022/06/16 03:39:04;;;;;;;24.80;23.20;;;;;;;;;;5033640;28;20490;-77
2022/06/16 03:41:32;;;;;;;24.17;22.67;;;;;;;;;;5033825;28;20455;-78
2022/06/16 03:43:59;;;;;;;23.70;22.30;;;;;;;;;;5034132;28;20806;-78
2022/06/16 03:46:27;;;;;;;23.57;22.17;;;;;;;;;;5033814;28;20968;-78
2022/06/16 03:48:54;;;;;;;24.60;23.00;;;;;;;;;;5033740;28;20419;-79
2022/06/16 03:51:22;;;;;;;24.20;22.40;;;;;;;;;;5034240;28;20436;-78
2022/06/16 03:53:49;;;;;;;24.33;22.60;;;;;;;;;;5033876;28;20444;-78
2022/06/16 03:56:18;;;;;;;23.17;21.87;;;;;;;;;;5033631;28;20885;-78
2022/06/16 03:58:46;;;;;;;23.80;22.40;;;;;;;;;;5033585;28;20440;-78
2022/06/16 04:01:13;;;;;;;23.47;22.13;;;;;;;;;;5033688;28;20446;-78
2022/06/16 04:06:25;;;;;;;23.57;22.27;;;;;;;;;;5033698;28;21264;-78
2022/06/16 04:08:53;;;;;;;24.07;22.67;;;;;;;;;;5033367;28;20426;-78
2022/06/16 04:11:28;;;;;;;23.93;22.47;;;;;;;;;;5033491;28;20459;-78
2022/06/16 04:13:56;;;;;;;23.83;22.40;;;;;;;;;;5033309;28;20415;-78
2022/06/16 04:16:23;;;;;;;23.40;21.90;;;;;;;;;;5033832;28;20502;-78
2022/06/16 04:18:51;;;;;;;23.77;22.27;;;;;;;;;;5033612;28;20450;-77
2022/06/16 04:21:18;;;;;;;23.80;22.40;;;;;;;;;;5033126;28;20463;-78
2022/06/16 04:23:46;;;;;;;24.00;22.07;;;;;;;;;;5033162;28;20800;-78
2022/06/16 04:26:13;;;;;;;23.50;22.13;;;;;;;;;;5033408;28;20448;-78
2022/06/16 04:28:42;;;;;;;22.90;21.60;;;;;;;;;;5032955;28;20556;-78
2022/06/16 04:31:09;;;;;;;23.40;21.80;;;;;;;;;;5033291;28;20419;-77
2022/06/16 04:33:39;;;;;;;22.60;21.40;;;;;;;;;;5033033;28;20433;-79
2022/06/16 04:36:07;;;;;;;24.10;22.63;;;;;;;;;;5033125;28;20415;-78
2022/06/16 04:38:34;;;;;;;26.60;25.17;;;;;;;;;;5032951;28;20446;-78
2022/06/16 04:41:02;;;;;;;24.37;22.97;;;;;;;;;;5033289;28;20414;-78
2022/06/16 04:43:29;;;;;;;24.80;23.30;;;;;;;;;;5033133;28;20419;-78
2022/06/16 04:45:59;;;;;;;24.87;23.47;;;;;;;;;;5033007;28;20419;-79
2022/06/16 04:48:26;;;;;;;26.13;24.40;;;;;;;;;;5033024;28;20465;-78
2022/06/16 04:50:53;;;;;;;24.67;23.17;;;;;;;;;;5032169;28;20487;-77
2022/06/16 04:53:22;;;;;;;24.83;23.40;;;;;;;;;;5032791;28;20444;-78
2022/06/16 04:55:53;;;;;;;24.50;22.80;;;;;;;;;;5032940;28;20437;-78
2022/06/16 04:58:21;;;;;;;24.23;22.50;;;;;;;;;;5033074;28;20464;-78
2022/06/16 05:00:48;;;;;;;24.30;22.80;;;;;;;;;;5032892;28;20415;-78
2022/06/16 05:03:18;;;;;;;25.07;23.53;;;;;;;;;;5032810;28;20492;-78
2022/06/16 05:05:46;;;;;;;23.40;22.10;;;;;;;;;;5032643;28;20444;-78
2022/06/16 05:08:13;;;;;;;26.17;24.30;;;;;;;;;;5032705;28;20442;-78
2022/06/16 05:10:41;;;;;;;24.33;22.90;;;;;;;;;;5032904;28;20433;-78
2022/06/16 05:13:08;;;;;;;23.60;21.90;;;;;;;;;;5032821;28;20419;-78
2022/06/16 05:15:36;;;;;;;24.37;23.03;;;;;;;;;;5032542;28;20531;-78
2022/06/16 05:18:03;;;;;;;24.47;22.93;;;;;;;;;;5032735;28;20441;-78
2022/06/16 05:20:32;;;;;;;22.63;21.43;;;;;;;;;;5032332;28;20925;-78
2022/06/16 05:23:00;;;;;;;22.43;21.10;;;;;;;;;;5032315;28;20484;-78
2022/06/16 05:25:27;;;;;;;24.63;23.13;;;;;;;;;;5032326;28;20443;-78
2022/06/16 05:27:54;;;;;;;23.80;22.47;;;;;;;;;;5032355;28;20468;-78
2022/06/16 05:30:22;;;;;;;24.87;23.47;;;;;;;;;;5032560;28;20422;-78
2022/06/16 05:32:49;;;;;;;24.27;22.90;;;;;;;;;;5032637;28;20470;-79
2022/06/16 05:35:16;;;;;;;23.60;22.40;;;;;;;;;;5032541;28;20459;-79
2022/06/16 05:37:45;;;;;;;23.80;22.40;;;;;;;;;;5032349;28;20455;-77
2022/06/16 05:40:13;;;;;;;22.97;21.70;;;;;;;;;;5032602;28;20452;-79
2022/06/16 05:42:41;;;;;;;22.37;21.17;;;;;;;;;;5032493;28;20461;-78
2022/06/16 05:45:09;;;;;;;22.30;21.07;;;;;;;;;;5032150;28;20803;-78
2022/06/16 05:47:37;;;;;;;23.13;21.70;;;;;;;;;;5032228;28;20783;-78
2022/06/16 05:50:05;;;;;;;23.00;21.50;;;;;;;;;;5032489;28;20448;-79
2022/06/16 05:52:32;;;;;;;22.30;21.10;;;;;;;;;;5032465;28;20448;-79
2022/06/16 05:55:01;;;;;;;21.80;20.60;;;;;;;;;;5032116;28;20483;-79
2022/06/16 05:57:29;;;;;;;21.97;20.63;;;;;;;;;;5032405;28;20434;-79
2022/06/16 05:59:56;;;;;;;23.40;21.80;;;;;;;;;;5032282;28;20833;-79
2022/06/16 06:02:23;;;;;;;23.10;21.50;;;;;;;;;;5032680;28;20479;-79
2022/06/16 06:04:51;;;;;;;23.00;21.50;;;;;;;;;;5035714;28;20456;-79
2022/06/16 06:07:18;;;;;;;22.07;20.83;;;;;;;;;;5035889;28;20439;-79
2022/06/16 06:18:23;;;;;;;22.00;20.80;;;;;;;;;;5035507;28;20765;-79
2022/06/16 06:20:50;;;;;;;22.20;20.70;;;;;;;;;;5035406;28;20802;-79
2022/06/16 06:23:18;;;;;;;22.47;21.17;;;;;;;;;;5035272;28;20462;-79
2022/06/16 06:25:45;;;;;;;21.67;20.00;;;;;;;;;;5035574;28;20411;-78
2022/06/16 06:28:17;;;;;;;20.70;19.50;;;;;;;;;;5035249;28;20443;-79
2022/06/16 06:30:44;;;;;;;22.37;21.13;;;;;;;;;;5035318;28;20433;-78
2022/06/16 06:33:12;;;;;;;21.20;20.00;;;;;;;;;;5035328;28;20414;-78
2022/06/16 06:35:39;;;;;;;21.90;20.50;;;;;;;;;;5034982;28;20415;-79
2022/06/16 06:38:07;;;;;;;22.17;20.87;;;;;;;;;;5035047;28;20479;-79
2022/06/16 06:40:36;;;;;;;22.60;21.10;;;;;;;;;;5034990;28;20481;-79
2022/06/16 06:43:04;;;;;;;22.00;20.40;;;;;;;;;;5035073;28;20454;-79
2022/06/16 06:45:33;;;;;;;22.17;20.87;;;;;;;;;;5035270;28;20752;-78
2022/06/16 06:48:01;;;;;;;21.50;20.30;;;;;;;;;;5035282;28;20439;-79
2022/06/16 06:50:29;;;;;;;20.97;19.83;;;;;;;;;;5035206;28;20455;-79
2022/06/16 06:52:56;;;;;;;22.20;20.73;;;;;;;;;;5035117;28;20436;-79
2022/06/16 06:55:24;;;;;;;21.27;20.17;;;;;;;;;;5034710;28;20452;-79
2022/06/16 06:57:52;;;;;;;22.20;20.90;;;;;;;;;;5035147;28;20451;-78
2022/06/16 07:00:23;;;;;;;21.70;20.50;;;;;;;;;;5035085;28;20437;-78
2022/06/16 07:02:52;;;;;;;21.63;20.43;;;;;;;;;;5034969;28;20511;-79
2022/06/16 07:05:19;;;;;;;22.20;21.00;;;;;;;;;;5034894;28;20447;-79
2022/06/16 07:07:47;;;;;;;22.10;20.90;;;;;;;;;;5034772;28;20503;-79
2022/06/16 07:10:15;;;;;;;22.47;20.97;;;;;;;;;;5034820;28;20415;-80
2022/06/16 07:12:43;;;;;;;22.33;21.00;;;;;;;;;;5034794;28;20411;-79
2022/06/16 07:15:10;;;;;;;22.10;20.80;;;;;;;;;;5034158;28;20456;-79
2022/06/16 07:17:38;;;;;;;21.63;20.23;;;;;;;;;;5034570;28;20833;-78
2022/06/16 07:20:07;;;;;;;21.47;20.23;;;;;;;;;;5034649;28;20753;-79
2022/06/16 07:22:35;;;;;;;21.40;20.30;;;;;;;;;;5034732;28;20487;-83
2022/06/16 07:25:02;;;;;;;21.20;19.80;;;;;;;;;;5016779;28;20505;-79
2022/06/16 07:27:30;;;;;;;21.50;20.30;;;;;;;;;;5034487;28;20841;-78
2022/06/16 07:29:58;;;;;;;21.57;20.37;;;;;;;;;;5034136;28;20502;-79
2022/06/16 07:32:25;;;;;;;21.93;20.73;;;;;;;;;;5034459;28;20411;-79
2022/06/16 07:34:52;;;;;;;21.50;20.30;;;;;;;;;;5034280;28;20440;-79
2022/06/16 07:37:21;;;;;;;21.90;20.60;;;;;;;;;;5034208;28;20436;-78
2022/06/16 07:39:49;;;;;;;21.77;20.40;;;;;;;;;;5000269;28;20996;-78
2022/06/16 07:42:16;;;;;;;21.33;20.10;;;;;;;;;;5033820;28;20491;-79
2022/06/16 07:44:43;;;;;;;21.87;20.40;;;;;;;;;;5033834;28;20898;-79
2022/06/16 07:47:11;;;;;;;20.80;19.50;;;;;;;;;;5033845;28;20925;-78
2022/06/16 07:49:38;;;;;;;21.43;20.23;;;;;;;;;;5033907;28;20437;-79
2022/06/16 07:52:05;;;;;;;22.30;21.10;;;;;;;;;;5034193;28;20448;-79
2022/06/16 07:54:34;;;;;;;22.10;20.80;;;;;;;;;;5033563;28;20430;-78
2022/06/16 07:57:01;;;;;;;21.47;20.17;;;;;;;;;;5033758;28;20929;-80
2022/06/16 07:59:29;;;;;;;21.33;19.93;;;;;;;;;;5033786;28;20438;-78
2022/06/16 08:01:56;;;;;;;21.40;19.80;;;;;;;;;;5033643;28;20968;-79
2022/06/16 08:04:24;;;;;;;21.73;20.33;;;;;;;;;;5033527;28;20414;-79
2022/06/16 08:06:51;;;;;;;20.90;19.80;;;;;;;;;;5033744;28;20527;-79
2022/06/16 08:09:19;;;;;;;20.47;19.27;;;;;;;;;;5033392;28;20520;-79
2022/06/16 08:14:42;;;;;;;20.73;19.47;;;;;;;;;;4969163;28;20776;-80
2022/06/16 08:17:12;;;;;;;20.17;18.97;;;;;;;;;;4972249;28;20892;-78
2022/06/16 08:19:39;;;;;;;21.60;20.40;;;;;;;;;;4972230;28;20963;-77
2022/06/16 08:22:06;;;;;;;20.73;19.43;;;;;;;;;;4972036;28;20447;-78
2022/06/16 08:24:34;;;;;;;21.00;19.80;;;;;;;;;;4972197;28;20426;-78
2022/06/16 08:27:03;;;;;;;21.10;19.80;;;;;;;;;;4971989;28;20478;-78
2022/06/16 08:29:31;;;;;;;20.40;19.20;;;;;;;;;;4971973;28;20446;-78
2022/06/16 08:31:58;;;;;;;21.47;20.13;;;;;;;;;;4972007;28;20632;-79
2022/06/16 08:34:26;;;;;;;20.60;19.27;;;;;;;;;;4972003;28;20429;-77
2022/06/16 08:36:53;;;;;;;20.97;19.70;;;;;;;;;;4955796;28;20417;-78
2022/06/16 08:39:21;;;;;;;20.67;19.47;;;;;;;;;;4969794;28;20456;-78
2022/06/16 08:41:50;;;;;;;22.37;21.17;;;;;;;;;;4955016;28;20947;-78
2022/06/16 08:44:21;;;;;;;22.57;21.27;;;;;;;;;;4952505;29;20470;-77
2022/06/16 08:47:04;;;;;;;23.10;21.90;;;;;;;;;;4952600;29;20447;-77
2022/06/16 08:49:34;;;;;;;23.53;22.13;;;;;;;;;;4959576;28;20439;-78
2022/06/16 08:52:08;;;;;;;22.50;21.20;;;;;;;;;;5013160;28;20441;-78
2022/06/16 08:54:42;;;;;;;21.97;20.67;;;;;;;;;;5012819;28;20438;-78
2022/06/16 08:57:11;;;;;;;22.10;20.80;;;;;;;;;;5012883;28;20473;-78
2022/06/16 08:59:43;;;;;;;21.80;20.40;;;;;;;;;;5013152;28;20521;-78
2022/06/16 09:02:17;;;;;;;21.83;20.63;;;;;;;;;;5012950;28;20420;-77
2022/06/16 09:04:49;;;;;;;22.87;21.43;;;;;;;;;;5013120;28;20448;-78
2022/06/16 09:07:23;;;;;;;21.87;20.50;;;;;;;;;;5012974;28;20424;-78
2022/06/16 09:12:45;;;;;;;20.80;19.40;;;;;;;;;;5013095;28;20399;-76
2022/06/16 09:15:20;;;;;;;21.00;19.80;;;;;;;;;;5013014;28;20416;-76
2022/06/16 09:18:29;;;;;;;21.37;19.60;;;;;;;;;;5013002;28;20754;-77
2022/06/16 09:20:59;;;;;;;21.30;20.00;;;;;;;;;;5009416;28;20522;-77
2022/06/16 09:23:35;;;;;;;21.93;20.67;;;;;;;;;;5013010;28;20463;-82
2022/06/16 09:26:10;;;;;;;21.60;20.30;;;;;;;;;;5013225;28;20407;-82
2022/06/16 09:28:40;;;;;;;21.03;19.73;;;;;;;;;;5012739;28;20455;-80
2022/06/16 09:31:13;;;;;;;21.80;20.50;;;;;;;;;;5012865;28;20416;-77
2022/06/16 09:33:41;;;;;;;23.30;21.90;;;;;;;;;;5012851;28;20437;-77
2022/06/16 09:36:12;;;;;;;21.40;20.20;;;;;;;;;;5012695;28;20407;-77
2022/06/16 09:38:40;;;;;;;22.37;21.07;;;;;;;;;;5015121;28;20459;-77
2022/06/16 09:42:32;;;;;;;22.17;20.67;;;;;;;;;;5016684;28;20787;-77
2022/06/16 09:44:00;;;;;;;21.57;20.27;;;;;;;;;;5016200;28;20521;-77
2022/06/16 09:46:32;;;;;;;22.57;21.30;;;;;;;;;;5016584;28;20510;-77
2022/06/16 09:49:04;;;;;;;21.90;20.60;;;;;;;;;;5016234;28;20411;-77
2022/06/16 09:51:33;;;;;;;22.47;21.07;;;;;;;;;;5016543;28;20523;-77
2022/06/16 09:54:03;;;;;;;21.73;20.33;;;;;;;;;;5016386;28;20433;-77
2022/06/16 09:56:31;;;;;;;21.83;20.63;;;;;;;;;;5016419;28;20404;-77
2022/06/16 09:59:01;;;;;;;22.00;20.73;;;;;;;;;;5016307;28;20449;-77
2022/06/16 10:01:31;;;;;;;21.83;20.57;;;;;;;;;;5016033;28;20448;-78
2022/06/16 10:04:01;;;;;;;21.53;20.20;;;;;;;;;;5015883;28;21300;-77
2022/06/16 10:06:36;;;;;;;20.57;19.37;;;;;;;;;;5016103;28;20449;-77
2022/06/16 10:09:08;;;;;;;21.40;20.00;;;;;;;;;;5016029;28;20502;-77
2022/06/16 10:11:41;;;;;;;22.30;20.80;;;;;;;;;;5016202;28;20440;-78
2022/06/16 10:14:13;;;;;;;21.57;20.37;;;;;;;;;;5016085;28;20445;-77
2022/06/16 10:16:46;;;;;;;22.00;20.80;;;;;;;;;;5015695;28;20484;-77
2022/06/16 10:19:13;;;;;;;22.40;20.90;;;;;;;;;;5015656;28;20411;-76
2022/06/16 10:21:41;;;;;;;21.97;20.77;;;;;;;;;;4998045;28;20581;-76
2022/06/16 10:24:09;;;;;;;21.87;20.67;;;;;;;;;;5015562;28;20488;-76
2022/06/16 10:26:36;;;;;;;22.20;21.00;;;;;;;;;;5015658;28;20448;-76
2022/06/16 10:29:08;;;;;;;20.97;19.70;;;;;;;;;;5015520;28;20796;-77
2022/06/16 10:31:37;;;;;;;21.67;20.47;;;;;;;;;;5015789;28;20871;-77
2022/06/16 10:34:07;;;;;;;21.30;19.97;;;;;;;;;;5015546;28;20835;-77
2022/06/16 10:36:34;;;;;;;21.57;20.30;;;;;;;;;;5015564;28;20783;-77
2022/06/16 10:39:10;;;;;;;21.10;19.90;;;;;;;;;;5015475;28;20489;-77
2022/06/16 10:41:38;;;;;;;21.37;20.17;;;;;;;;;;5015447;28;20418;-76
2022/06/16 10:44:07;;;;;;;21.00;19.80;;;;;;;;;;5015211;28;20491;-76
2022/06/16 10:46:35;;;;;;;22.07;20.87;;;;;;;;;;5015277;28;20894;-77
2022/06/16 10:49:06;;;;;;;22.03;20.77;;;;;;;;;;5014266;28;20408;-76
2022/06/16 10:51:36;;;;;;;21.40;20.20;;;;;;;;;;5015395;28;20445;-77
2022/06/16 10:54:11;;;;;;;21.77;20.47;;;;;;;;;;5015285;28;20420;-76
2022/06/16 10:56:40;;;;;;;21.40;20.10;;;;;;;;;;5015236;28;20903;-79
2022/06/16 10:59:18;;;;;;;21.20;19.90;;;;;;;;;;5015328;28;20427;-80
2022/06/16 11:01:47;;;;;;;21.97;20.60;;;;;;;;;;5015539;28;20419;-77
2022/06/16 11:04:18;;;;;;;21.70;20.30;;;;;;;;;;5015130;28;21040;-84
2022/06/16 11:06:48;;;;;;;21.80;20.50;;;;;;;;;;5015449;28;20492;-88
2022/06/16 11:09:19;;;;;;;21.40;20.20;;;;;;;;;;4999069;28;20426;-87
2022/06/16 11:11:52;;;;;;;21.50;20.30;;;;;;;;;;5016214;28;20424;-88
2022/06/16 11:14:22;;;;;;;21.80;20.60;;;;;;;;;;4998407;28;20423;-79
2022/06/16 11:16:50;;;;;;;21.33;20.13;;;;;;;;;;5014594;28;20433;-79
2022/06/16 11:19:22;;;;;;;22.33;21.03;;;;;;;;;;5015048;28;20427;-80
2022/06/16 11:21:50;;;;;;;22.17;20.97;;;;;;;;;;5015475;28;20416;-83
2022/06/16 11:24:24;;;;;;;23.07;21.73;;;;;;;;;;5014850;28;20460;-76
2022/06/16 11:26:53;;;;;;;23.00;21.70;;;;;;;;;;5014770;28;20455;-86
2022/06/16 11:29:23;;;;;;;22.53;21.23;;;;;;;;;;5015725;28;20412;-85
2022/06/16 11:32:02;;;;;;;22.83;21.63;;;;;;;;;;5015164;28;21247;-75
2022/06/16 11:34:29;;;;;;;22.60;21.40;;;;;;;;;;5014617;28;20448;-85
2022/06/16 11:37:11;;;;;;;22.03;20.73;;;;;;;;;;5015184;28;20424;-84
2022/06/16 11:39:46;;;;;;;22.90;21.60;;;;;;;;;;5014812;28;20463;-84
2022/06/16 11:42:21;;;;;;;23.77;22.30;;;;;;;;;;5014835;28;20448;-84
2022/06/16 11:44:53;;;;;;;22.10;20.90;;;;;;;;;;5014819;28;20472;-85
2022/06/16 11:47:39;;;;;;;21.87;20.57;;;;;;;;;;5014612;28;20516;-85
2022/06/16 11:50:11;;;;;;;22.73;21.33;;;;;;;;;;5014935;28;20415;-84
2022/06/16 11:52:44;;;;;;;21.73;20.40;;;;;;;;;;5014976;28;20471;-85
2022/06/16 11:55:20;;;;;;;22.70;21.30;;;;;;;;;;5014553;28;20436;-84
2022/06/16 11:57:55;;;;;;;22.50;21.20;;;;;;;;;;5014773;28;20441;-84
2022/06/16 12:00:24;;;;;;;21.50;20.30;;;;;;;;;;5014396;28;20448;-84
2022/06/16 12:03:12;;;;;;;22.43;21.10;;;;;;;;;;5014873;28;20437;-83
2022/06/16 12:05:41;;;;;;;22.10;20.90;;;;;;;;;;5014716;28;20428;-83
2022/06/16 12:08:16;;;;;;;22.63;21.33;;;;;;;;;;5014157;28;20448;-84
2022/06/16 12:10:46;;;;;;;22.63;21.33;;;;;;;;;;5014078;28;20407;-85
2022/06/16 12:13:16;;;;;;;22.33;21.03;;;;;;;;;;5014056;28;20441;-83
2022/06/16 12:15:48;;;;;;;22.63;21.33;;;;;;;;;;5013859;28;20448;-83
2022/06/16 12:18:21;;;;;;;22.60;21.20;;;;;;;;;;5013877;28;20919;-83
2022/06/16 12:21:04;;;;;;;21.87;20.57;;;;;;;;;;5013767;28;20445;-82
2022/06/16 12:23:40;;;;;;;22.67;21.37;;;;;;;;;;5014260;28;20822;-84
2022/06/16 12:26:10;;;;;;;22.40;20.80;;;;;;;;;;5014358;28;20776;-86
2022/06/16 12:28:41;;;;;;;21.93;20.63;;;;;;;;;;5013805;28;20479;-83
2022/06/16 12:31:14;;;;;;;22.53;21.23;;;;;;;;;;5013845;28;20416;-82
2022/06/16 12:33:44;;;;;;;22.40;20.80;;;;;;;;;;5013529;28;21024;-81
2022/06/16 12:36:14;;;;;;;23.00;21.70;;;;;;;;;;5013711;28;20963;-84
2022/06/16 12:38:47;;;;;;;23.73;22.30;;;;;;;;;;5014186;28;20466;-86
2022/06/16 12:41:17;;;;;;;22.80;21.50;;;;;;;;;;5013342;28;20821;-85
2022/06/16 12:43:46;;;;;;;22.80;21.50;;;;;;;;;;5014226;28;20463;-85
2022/06/16 12:46:16;;;;;;;23.97;22.67;;;;;;;;;;5013502;28;20487;-73
2022/06/16 12:48:46;;;;;;;23.90;22.10;;;;;;;;;;5013349;28;20441;-83
2022/06/16 12:51:16;;;;;;;23.17;21.77;;;;;;;;;;5014049;28;20419;-85
2022/06/16 12:53:48;;;;;;;23.50;22.20;;;;;;;;;;5013349;28;20458;-82
2022/06/16 12:56:21;;;;;;;23.30;21.80;;;;;;;;;;5013585;28;20512;-83
2022/06/16 12:58:50;;;;;;;24.03;22.70;;;;;;;;;;5013323;28;20479;-83
2022/06/16 13:01:18;;;;;;;24.43;22.93;;;;;;;;;;5013547;28;20464;-83
2022/06/16 13:03:49;;;;;;;23.60;22.30;;;;;;;;;;5013418;28;20476;-84
2022/06/16 13:06:18;;;;;;;23.97;22.53;;;;;;;;;;4995959;28;20495;-85
2022/06/16 13:08:49;;;;;;;24.23;22.87;;;;;;;;;;5013882;28;20483;-85
2022/06/16 13:11:20;;;;;;;23.23;21.93;;;;;;;;;;5013770;28;20411;-85
2022/06/16 13:13:48;;;;;;;24.23;22.93;;;;;;;;;;5013014;28;20464;-84
2022/06/16 13:16:17;;;;;;;24.30;22.63;;;;;;;;;;5013824;28;20427;-85
2022/06/16 13:18:45;;;;;;;23.40;22.07;;;;;;;;;;5013739;28;20442;-84
2022/06/16 13:21:20;;;;;;;24.20;22.70;;;;;;;;;;5013515;28;20451;-85
2022/06/16 13:23:55;;;;;;;23.80;22.30;;;;;;;;;;5013270;28;20432;-85
2022/06/16 13:26:24;;;;;;;24.17;22.77;;;;;;;;;;5013604;28;20424;-83
2022/06/16 13:28:53;;;;;;;24.07;22.60;;;;;;;;;;5013472;28;20464;-84
2022/06/16 13:31:23;;;;;;;23.73;22.33;;;;;;;;;;5013644;28;20433;-85
2022/06/16 13:33:52;;;;;;;24.30;22.80;;;;;;;;;;5013119;28;20489;-84
2022/06/16 13:36:34;;;;;;;24.40;22.90;;;;;;;;;;5013339;28;20460;-88
2022/06/16 13:39:05;;;;;;;24.17;22.77;;;;;;;;;;5013342;28;20467;-88
2022/06/16 13:41:38;;;;;;;25.17;23.67;;;;;;;;;;5014025;28;20506;-87
2022/06/16 13:44:06;;;;;;;24.57;22.87;;;;;;;;;;5013682;28;20435;-88
2022/06/16 13:46:48;;;;;;;23.60;22.20;;;;;;;;;;5014177;28;20415;-88
2022/06/16 13:49:26;;;;;;;23.33;22.00;;;;;;;;;;5014467;28;20480;-88
2022/06/16 13:51:54;;;;;;;23.60;22.13;;;;;;;;;;5014469;28;20411;-88
2022/06/16 13:54:35;;;;;;;23.43;22.13;;;;;;;;;;5013935;28;20429;-88
2022/06/16 13:57:17;;;;;;;24.00;22.50;;;;;;;;;;4996308;28;20470;-88
2022/06/16 13:59:45;;;;;;;23.50;22.20;;;;;;;;;;5013866;28;20462;-88
2022/06/16 14:02:14;;;;;;;24.43;23.00;;;;;;;;;;5013662;28;20439;-76
2022/06/16 14:04:46;;;;;;;22.63;21.30;;;;;;;;;;5012414;28;20469;-79
2022/06/16 14:07:15;;;;;;;22.90;21.40;;;;;;;;;;5012171;28;20448;-77
2022/06/16 14:09:53;;;;;;;23.80;22.40;;;;;;;;;;5012533;28;20446;-79
2022/06/16 14:12:22;;;;;;;22.57;21.27;;;;;;;;;;5012238;28;20528;-76
2022/06/16 14:15:03;;;;;;;23.97;22.40;;;;;;;;;;5012580;28;20460;-75
2022/06/16 14:17:32;;;;;;;23.93;22.40;;;;;;;;;;5012485;28;20415;-79
2022/06/16 14:20:01;;;;;;;24.87;23.27;;;;;;;;;;5012101;28;20770;-75
2022/06/16 14:22:29;;;;;;;24.47;23.07;;;;;;;;;;5012732;28;20503;-79
2022/06/16 14:25:01;;;;;;;24.50;23.10;;;;;;;;;;5015824;28;20505;-88
2022/06/16 14:27:32;;;;;;;24.17;22.77;;;;;;;;;;5017124;28;20455;-88
2022/06/16 14:30:00;;;;;;;24.97;23.50;;;;;;;;;;5016896;28;20419;-77
2022/06/16 14:32:31;;;;;;;23.63;22.33;;;;;;;;;;5015894;28;20419;-84
2022/06/16 14:35:03;;;;;;;24.37;22.97;;;;;;;;;;5016476;28;20466;-84
2022/06/16 14:37:32;;;;;;;24.40;22.90;;;;;;;;;;5016271;28;20436;-85
2022/06/16 14:40:04;;;;;;;23.63;22.33;;;;;;;;;;5016393;28;20828;-76
2022/06/16 14:42:34;;;;;;;23.80;22.33;;;;;;;;;;5026798;28;20472;-75
2022/06/16 14:45:02;;;;;;;23.90;22.40;;;;;;;;;;5034251;28;20482;-75
2022/06/16 14:47:32;;;;;;;24.20;22.63;;;;;;;;;;5035164;28;20527;-75
2022/06/16 14:50:03;;;;;;;24.57;23.17;;;;;;;;;;5035013;28;20483;-78
2022/06/16 14:52:32;;;;;;;24.33;22.83;;;;;;;;;;5035418;28;20411;-86
2022/06/16 14:55:05;;;;;;;23.87;22.47;;;;;;;;;;5036235;28;20447;-87